Terminal Aerodrome Forecast
Issued by NWS Dallas/Fort Worth, TX

Home | Current Version | Previous Version | Text Only | Print | Product List | Glossary On
Versions: 1 2 3 4 5 6 7 8 9 10 11 12 13 14 15 16 17 18 19 20 21 22 23 24 25 26 27 28 29 30
711
FTUS44 KFWD 300520
TAFDFW
TAF
KDFW 300520Z 3006/0112 29016KT P6SM SCT025 OVC080
     FM300700 28018KT P6SM -SHRA VCTS SCT030 BKN080CB
     FM301100 28022KT P6SM SCT030 BKN100
     FM301600 28022G32KT P6SM SCT050
     FM302000 28025G35KT P6SM SCT250
     FM010000 29015G25KT P6SM FEW250
     FM010200 30010KT P6SM SKC=

USA.gov is the U.S. government's official web portal to all federal, state and local government web resources and services.